Time;durP1;ratioP1;P1;durP2;ratioP2;P2;SDS_P1;SDS_P2;PMS_P1;PMS_P2;Temp;Humidity;BMP_temperature;BMP_pressure;BME280_temperature;BME280_humidity;BME280_pressure;Samples;Min_cycle;Max_cycle;Signal;HPM_P1;HPM_P2
2021/11/04 00:02:11;;;;;;;;;27.50;24.00;;;;;7.75;86.02;100269.59;5050879;28;45505;-61
2021/11/04 00:04:36;;;;;;;;;28.75;26.75;;;;;7.76;85.54;100274.72;5049033;28;46099;-61
2021/11/04 00:07:03;;;;;;;;;35.50;26.25;;;;;7.77;85.76;100278.16;5044623;28;45425;-61
2021/11/04 00:09:28;;;;;;;;;31.75;26.25;;;;;7.78;85.91;100277.25;5049506;28;45349;-61
2021/11/04 00:11:54;;;;;;;;;30.25;25.75;;;;;7.77;85.82;100268.66;5050125;28;45562;-61
2021/11/04 00:14:19;;;;;;;;;34.00;27.50;;;;;7.73;86.26;100266.19;5049482;28;45987;-61
2021/11/04 00:16:45;;;;;;;;;30.00;27.25;;;;;7.72;86.13;100274.84;5045803;28;45463;-61
2021/11/04 00:19:10;;;;;;;;;29.25;26.75;;;;;7.68;86.67;100271.47;5049258;28;45326;-61
2021/11/04 00:21:36;;;;;;;;;32.75;25.50;;;;;7.63;87.13;100261.25;5048041;28;45921;-62
2021/11/04 00:24:02;;;;;;;;;29.00;23.75;;;;;7.64;86.44;100259.50;5047471;28;45904;-62
2021/11/04 00:26:27;;;;;;;;;28.50;26.75;;;;;7.68;87.23;100263.72;5044524;28;45369;-62
2021/11/04 00:28:53;;;;;;;;;29.00;23.50;;;;;7.67;86.71;100272.34;5047451;28;45339;-62
2021/11/04 00:31:19;;;;;;;;;31.25;27.00;;;;;7.69;87.05;100277.50;5044779;28;45504;-62
2021/11/04 00:33:44;;;;;;;;;32.50;27.00;;;;;7.70;86.63;100274.88;5046651;28;45485;-62
2021/11/04 00:36:10;;;;;;;;;30.25;27.00;;;;;7.71;86.58;100273.13;5050475;28;45330;-62
2021/11/04 00:38:35;;;;;;;;;36.50;32.00;;;;;7.69;87.28;100275.75;5050482;28;45740;-62
2021/11/04 00:41:01;;;;;;;;;36.50;28.75;;;;;7.69;87.09;100274.91;5050654;28;45210;-62
2021/11/04 00:43:26;;;;;;;;;37.50;29.50;;;;;7.70;87.35;100281.78;5049832;28;47235;-62
2021/11/04 00:45:51;;;;;;;;;29.75;28.50;;;;;7.71;87.15;100284.31;5052510;28;45232;-62
2021/11/04 00:48:17;;;;;;;;;30.50;27.50;;;;;7.75;87.71;100274.75;5048908;28;45304;-62
2021/11/04 00:50:42;;;;;;;;;25.00;21.00;;;;;7.80;87.67;100280.66;5047017;28;45430;-62
2021/11/04 00:53:08;;;;;;;;;27.00;25.25;;;;;7.83;87.15;100278.03;5049379;28;45473;-61
2021/11/04 00:55:33;;;;;;;;;24.75;23.75;;;;;7.84;86.97;100278.00;5050495;28;45399;-61
2021/11/04 00:57:58;;;;;;;;;26.00;24.00;;;;;7.86;87.50;100283.13;5059990;28;45438;-61
2021/11/04 01:00:24;;;;;;;;;29.75;24.75;;;;;7.86;87.24;100286.56;5059210;28;45581;-62
2021/11/04 01:02:50;;;;;;;;;32.50;22.00;;;;;7.85;87.14;100278.84;5059410;28;45987;-62
2021/11/04 01:05:16;;;;;;;;;27.75;25.25;;;;;7.91;87.12;100287.31;5059429;28;45260;-61
2021/11/04 01:07:41;;;;;;;;;23.50;23.25;;;;;7.96;87.07;100291.50;5059762;28;45383;-62
2021/11/04 01:10:07;;;;;;;;;39.25;26.25;;;;;7.99;87.00;100284.50;5052284;28;45504;-62
2021/11/04 01:12:32;;;;;;;;;30.50;24.75;;;;;7.99;87.23;100288.84;5059368;28;45350;-62
2021/11/04 01:14:58;;;;;;;;;26.25;20.75;;;;;7.97;87.30;100288.88;5058970;28;45312;-61
2021/11/04 01:17:24;;;;;;;;;27.25;23.50;;;;;7.92;87.75;100288.16;5061334;28;45173;-61
2021/11/04 01:19:49;;;;;;;;;34.25;26.75;;;;;7.92;86.85;100280.38;5061487;28;45402;-61
2021/11/04 01:22:15;;;;;;;;;29.50;26.25;;;;;7.93;87.12;100279.50;5062898;28;45197;-62
2021/11/04 01:24:40;;;;;;;;;26.00;22.50;;;;;7.93;87.20;100276.91;5051047;28;45350;-61
2021/11/04 01:27:06;;;;;;;;;37.50;27.25;;;;;7.90;87.05;100277.84;5063112;28;45409;-61
2021/11/04 01:29:31;;;;;;;;;29.50;23.50;;;;;7.87;87.09;100282.25;5062507;28;45391;-60
2021/11/04 01:31:57;;;;;;;;;27.00;22.50;;;;;7.84;87.43;100279.72;5062680;28;46024;-61
2021/11/04 01:34:22;;;;;;;;;25.75;22.00;;;;;7.84;87.70;100290.94;5062582;28;45496;-60
2021/11/04 01:36:48;;;;;;;;;30.00;24.75;;;;;7.85;87.70;100277.09;5068552;28;45378;-60
2021/11/04 01:39:13;;;;;;;;;25.75;22.75;;;;;7.83;87.78;100283.22;5061250;28;45469;-61
2021/11/04 01:41:38;;;;;;;;;28.25;23.00;;;;;7.79;88.04;100277.22;5062654;28;45359;-60
2021/11/04 01:44:04;;;;;;;;;27.25;24.00;;;;;7.77;87.92;100267.81;5062029;28;45529;-60
2021/11/04 01:46:30;;;;;;;;;27.75;22.25;;;;;7.75;88.39;100274.75;5061446;28;45307;-60
2021/11/04 01:48:55;;;;;;;;;25.75;20.00;;;;;7.72;88.83;100278.28;5061537;28;45374;-61
2021/11/04 01:51:21;;;;;;;;;25.75;19.25;;;;;7.66;88.57;100280.16;5061407;28;45469;-60
2021/11/04 01:53:47;;;;;;;;;23.25;20.00;;;;;7.65;88.39;100284.47;5046317;28;45598;-61
2021/11/04 01:56:13;;;;;;;;;26.75;23.50;;;;;7.63;88.77;100274.16;5061785;28;45283;-61
2021/11/04 01:58:39;;;;;;;;;36.25;23.75;;;;;7.62;88.98;100279.38;5060802;28;45506;-61
2021/11/04 02:01:05;;;;;;;;;24.50;19.75;;;;;7.60;88.70;100289.72;5061347;28;45325;-61
2021/11/04 02:03:46;;;;;;;;;26.50;22.50;;;;;7.58;88.94;100294.09;5060706;28;45317;-61
2021/11/04 02:06:31;;;;;;;;;22.50;20.00;;;;;7.60;88.51;100296.63;5062784;28;45461;-58
2021/11/04 02:09:01;;;;;;;;;24.00;21.50;;;;;7.58;87.92;100294.09;5060530;28;45367;-59
2021/11/04 02:11:34;;;;;;;;;25.25;19.75;;;;;7.56;89.42;100295.00;5058316;28;45343;-59
2021/11/04 02:14:09;;;;;;;;;33.00;27.25;;;;;7.51;89.33;100297.72;5049145;28;45923;-59
2021/11/04 02:16:36;;;;;;;;;28.50;23.25;;;;;7.48;89.22;100286.59;5059575;28;45311;-59
2021/11/04 02:19:14;;;;;;;;;28.00;20.00;;;;;7.47;88.92;100285.72;5058155;28;45572;-59
2021/11/04 02:21:51;;;;;;;;;27.50;22.75;;;;;7.44;90.03;100287.53;5059908;28;45514;-59
2021/11/04 02:24:30;;;;;;;;;23.00;20.00;;;;;7.40;89.60;100285.88;5048680;28;45455;-60
2021/11/04 02:26:58;;;;;;;;;21.00;21.00;;;;;7.41;89.78;100296.22;5061940;28;45231;-59
2021/11/04 02:29:23;;;;;;;;;24.00;19.75;;;;;7.39;90.02;100297.09;5061368;28;45330;-59
2021/11/04 02:31:49;;;;;;;;;19.00;18.75;;;;;7.43;89.70;100298.78;5061610;28;46148;-59
2021/11/04 02:34:15;;;;;;;;;21.00;16.75;;;;;7.44;89.35;100308.22;5061393;28;45330;-58
2021/11/04 02:36:42;;;;;;;;;21.75;20.00;;;;;7.44;89.85;100306.50;5067595;28;45275;-59
2021/11/04 02:39:09;;;;;;;;;19.75;19.75;;;;;7.45;90.07;100297.84;5061725;28;45421;-59
2021/11/04 02:41:34;;;;;;;;;21.50;21.00;;;;;7.41;90.34;100298.81;5061854;28;46438;-59
2021/11/04 02:44:01;;;;;;;;;16.25;16.00;;;;;7.38;90.88;100303.16;5061141;28;45269;-60
2021/11/04 02:46:28;;;;;;;;;19.50;17.00;;;;;7.35;90.25;100301.50;5060526;28;45166;-59
2021/11/04 02:48:54;;;;;;;;;31.25;22.00;;;;;7.33;90.23;100300.69;5061272;28;45826;-60
2021/11/04 02:51:19;;;;;;;;;21.25;20.50;;;;;7.32;90.34;100307.59;5061553;28;46364;-60
2021/11/04 02:53:46;;;;;;;;;17.50;17.50;;;;;7.30;90.85;100305.94;5047882;28;45307;-59
2021/11/04 02:56:12;;;;;;;;;22.00;19.00;;;;;7.28;90.53;100305.97;5061646;28;45373;-59
2021/11/04 02:58:38;;;;;;;;;31.75;22.75;;;;;7.25;90.63;100303.44;5061127;28;45178;-59
2021/11/04 03:01:04;;;;;;;;;28.75;24.75;;;;;7.24;91.17;100316.41;5061445;28;46086;-59
2021/11/04 03:03:29;;;;;;;;;31.00;23.25;;;;;7.23;90.92;100309.53;5061105;28;45406;-59
2021/11/04 03:05:55;;;;;;;;;27.50;23.00;;;;;7.26;90.59;100315.47;5061596;28;45381;-59
2021/11/04 03:08:20;;;;;;;;;24.25;19.50;;;;;7.29;90.61;100318.00;5061362;28;45334;-59
2021/11/04 03:10:46;;;;;;;;;27.75;20.25;;;;;7.35;90.50;100317.00;5061327;28;46132;-59
2021/11/04 03:13:11;;;;;;;;;27.00;20.25;;;;;7.41;90.40;100321.19;5060908;28;45235;-59
2021/11/04 03:15:40;;;;;;;;;25.50;23.00;;;;;7.43;90.36;100314.28;5047650;28;45307;-60
2021/11/04 03:18:07;;;;;;;;;27.50;20.75;;;;;7.44;90.90;100318.56;5056673;28;45414;-59
2021/11/04 03:20:34;;;;;;;;;26.00;20.50;;;;;7.44;90.45;100315.97;5060983;28;46156;-59
2021/11/04 03:23:00;;;;;;;;;28.50;24.00;;;;;7.43;90.15;100319.44;5057082;28;46015;-59
2021/11/04 03:25:26;;;;;;;;;32.00;24.75;;;;;7.40;90.39;100312.59;5052736;28;45294;-61
2021/11/04 03:27:54;;;;;;;;;22.75;20.00;;;;;7.41;90.50;100313.44;5060837;28;45288;-60
2021/11/04 03:30:24;;;;;;;;;26.25;22.00;;;;;7.39;90.83;100310.88;5060626;28;46074;-60
2021/11/04 03:32:52;;;;;;;;;32.50;27.75;;;;;7.41;90.46;100313.44;5059301;28;45201;-60
2021/11/04 03:35:19;;;;;;;;;26.75;21.00;;;;;7.45;90.27;100312.50;5067622;28;45327;-60
2021/11/04 03:37:48;;;;;;;;;26.25;23.25;;;;;7.49;90.35;100317.56;5060444;28;45311;-59
2021/11/04 03:40:15;;;;;;;;;32.25;23.00;;;;;7.55;90.22;100320.03;5059704;28;46086;-59
2021/11/04 03:42:42;;;;;;;;;30.25;25.75;;;;;7.58;89.97;100325.13;5060730;28;45362;-60
2021/11/04 03:45:09;;;;;;;;;24.00;20.00;;;;;7.63;89.94;100322.47;5059074;28;45381;-59
2021/11/04 03:47:36;;;;;;;;;18.75;18.75;;;;;7.67;89.95;100328.41;5060438;28;45615;-59
2021/11/04 03:50:04;;;;;;;;;26.50;21.25;;;;;7.71;89.68;100335.22;5060830;28;45358;-59
2021/11/04 03:52:29;;;;;;;;;28.25;22.25;;;;;7.73;89.66;100333.44;5055543;28;45862;-59
2021/11/04 03:54:56;;;;;;;;;25.00;20.00;;;;;7.75;89.45;100336.84;5052312;28;45249;-61
2021/11/04 03:57:25;;;;;;;;;24.50;22.75;;;;;7.75;89.61;100347.19;5060324;28;45567;-62
2021/11/04 03:59:52;;;;;;;;;20.75;19.25;;;;;7.85;89.18;100343.50;5060085;28;46137;-62
2021/11/04 04:02:20;;;;;;;;;22.75;22.75;;;;;7.93;89.00;100352.78;5060161;28;45351;-62
2021/11/04 04:04:54;;;;;;;;;31.00;27.50;;;;;7.93;89.00;100351.94;5060543;28;45331;-61
2021/11/04 04:07:30;;;;;;;;;26.00;20.50;;;;;7.89;89.01;100356.34;5060500;28;45540;-59
2021/11/04 04:09:55;;;;;;;;;25.50;20.00;;;;;7.92;88.89;100350.25;5060203;28;45999;-59
2021/11/04 04:12:21;;;;;;;;;32.25;25.00;;;;;7.94;89.17;100353.66;5060326;28;45231;-59
2021/11/04 04:14:47;;;;;;;;;18.00;16.50;;;;;7.97;89.20;100356.16;5059897;28;45388;-60
2021/11/04 04:17:13;;;;;;;;;28.25;22.00;;;;;7.96;89.25;100349.28;5055066;28;45270;-59
2021/11/04 04:19:38;;;;;;;;;26.00;24.00;;;;;8.00;89.36;100353.50;5055131;28;46421;-59
2021/11/04 04:22:04;;;;;;;;;29.75;20.75;;;;;8.03;90.05;100353.44;5058375;28;45287;-59
2021/11/04 04:24:31;;;;;;;;;26.00;22.25;;;;;8.05;89.78;100351.66;5047925;28;45312;-58
2021/11/04 04:26:56;;;;;;;;;27.75;22.50;;;;;8.06;89.58;100358.56;5058640;28;45205;-58
2021/11/04 04:29:22;;;;;;;;;26.50;20.75;;;;;8.08;90.13;100359.34;5056994;28;47131;-58
2021/11/04 04:31:47;;;;;;;;;28.00;25.00;;;;;8.07;89.91;100357.66;5058779;28;45231;-58
2021/11/04 04:34:13;;;;;;;;;28.75;22.25;;;;;8.08;89.83;100371.44;5057534;28;45230;-58
2021/11/04 04:36:38;;;;;;;;;26.00;23.75;;;;;8.09;90.31;100371.41;5066887;28;45177;-58
2021/11/04 04:39:04;;;;;;;;;31.00;23.25;;;;;8.12;90.63;100375.66;5057160;28;45530;-58
2021/11/04 04:41:29;;;;;;;;;31.50;26.75;;;;;8.14;91.62;100374.72;5058912;28;45310;-58
2021/11/04 04:43:55;;;;;;;;;11.25;11.25;;;;;8.12;91.05;100380.84;5056989;28;45380;-58
2021/11/04 04:46:21;;;;;;;;;30.50;25.75;;;;;8.04;92.89;100378.44;5058616;28;45393;-58
2021/11/04 04:48:47;;;;;;;;;25.00;23.25;;;;;7.99;92.45;100375.06;5059146;28;46347;-58
2021/11/04 04:51:12;;;;;;;;;30.25;23.25;;;;;7.97;92.45;100369.09;5059686;28;45423;-58
2021/11/04 04:53:38;;;;;;;;;30.50;25.50;;;;;7.91;92.83;100372.69;5045690;28;45300;-58
2021/11/04 04:56:03;;;;;;;;;28.75;26.50;;;;;7.93;93.29;100389.00;5059687;28;45599;-58
2021/11/04 04:58:28;;;;;;;;;35.00;24.25;;;;;7.96;92.75;100387.25;5059154;28;45850;-58
2021/11/04 05:00:54;;;;;;;;;29.75;27.50;;;;;7.99;92.96;100382.84;5059540;28;45257;-58
2021/11/04 05:03:20;;;;;;;;;26.00;24.00;;;;;8.00;93.42;100383.69;5058064;28;45288;-59
2021/11/04 05:05:45;;;;;;;;;25.00;24.00;;;;;7.96;93.52;100372.56;5059617;28;45344;-58
2021/11/04 05:08:11;;;;;;;;;32.00;30.00;;;;;7.97;93.92;100379.44;5059451;28;45418;-58
2021/11/04 05:10:36;;;;;;;;;33.50;27.50;;;;;7.95;93.80;100378.63;5058060;28;45368;-58
2021/11/04 05:13:01;;;;;;;;;31.50;25.00;;;;;7.94;94.58;100382.94;5059385;28;45476;-58
2021/11/04 05:15:27;;;;;;;;;12.50;7.75;;;;;7.94;94.20;100382.94;5059128;28;45324;-59
2021/11/04 05:17:52;;;;;;;;;31.75;27.50;;;;;8.01;94.21;100390.56;5058319;28;45402;-58
2021/11/04 05:20:17;;;;;;;;;26.50;23.75;;;;;8.03;94.94;100391.41;5058336;28;45223;-57
2021/11/04 05:22:43;;;;;;;;;28.50;26.75;;;;;8.01;94.78;100395.75;5059419;28;45203;-57
2021/11/04 05:25:08;;;;;;;;;29.00;26.25;;;;;7.98;94.98;100382.88;5049777;28;45359;-60
2021/11/04 05:27:34;;;;;;;;;32.00;28.00;;;;;7.99;94.72;100392.34;5058708;28;46222;-61
2021/11/04 05:29:59;;;;;;;;;30.50;23.00;;;;;8.01;96.37;100401.81;5058839;28;45664;-59
2021/11/04 05:32:25;;;;;;;;;35.00;26.00;;;;;8.00;95.68;100400.06;5058656;28;45300;-58
2021/11/04 05:34:51;;;;;;;;;33.75;27.25;;;;;7.98;95.93;100395.81;5061607;28;45650;-59
2021/11/04 05:37:16;;;;;;;;;30.50;26.25;;;;;8.01;95.58;100396.63;5061431;28;46928;-58
2021/11/04 05:39:42;;;;;;;;;27.25;25.25;;;;;8.02;95.20;100392.31;5059131;28;45411;-58
2021/11/04 05:42:08;;;;;;;;;31.25;25.75;;;;;8.08;95.35;100389.56;5058421;28;45268;-60
2021/11/04 05:44:37;;;;;;;;;27.50;23.25;;;;;8.08;94.99;100394.75;5055616;28;45465;-59
2021/11/04 05:47:06;;;;;;;;;29.00;24.50;;;;;8.10;95.62;100396.41;5058092;28;45279;-59
2021/11/04 05:49:32;;;;;;;;;26.50;25.00;;;;;8.11;95.48;100403.28;5058838;28;45224;-59
2021/11/04 05:51:57;;;;;;;;;30.75;25.50;;;;;8.12;95.09;100404.97;5058577;28;45358;-59
2021/11/04 05:54:23;;;;;;;;;34.50;24.50;;;;;8.15;95.28;100406.66;5045462;28;45402;-59
2021/11/04 05:56:48;;;;;;;;;25.25;24.00;;;;;8.16;95.66;100406.59;5058212;28;45559;-60
2021/11/04 05:59:14;;;;;;;;;31.25;25.75;;;;;8.16;95.74;100400.59;5052989;28;45344;-59
2021/11/04 06:01:39;;;;;;;;;31.50;26.75;;;;;8.18;96.03;100409.16;5053593;28;45352;-59
2021/11/04 06:04:05;;;;;;;;;22.75;22.00;;;;;8.16;96.75;100409.19;5061281;28;45352;-59
2021/11/04 06:06:30;;;;;;;;;35.25;30.25;;;;;8.18;96.19;100414.34;5061816;28;45985;-58
2021/11/04 06:08:55;;;;;;;;;34.50;28.50;;;;;8.20;96.55;100409.97;5062393;28;45302;-58
2021/11/04 06:11:21;;;;;;;;;20.75;20.75;;;;;8.19;97.34;100416.03;5061547;28;45952;-59
2021/11/04 06:13:46;;;;;;;;;29.00;26.00;;;;;8.15;97.80;100419.59;5059809;28;45623;-59
2021/11/04 06:16:14;;;;;;;;;26.25;21.00;;;;;8.15;97.39;100422.19;5059072;28;45802;-58
2021/11/04 06:18:41;;;;;;;;;27.00;22.00;;;;;8.18;97.79;100422.09;5059053;28;45616;-58
2021/11/04 06:21:07;;;;;;;;;30.25;24.50;;;;;8.19;97.76;100416.88;5060084;28;45237;-57
2021/11/04 06:23:32;;;;;;;;;32.25;26.25;;;;;8.22;97.50;100427.19;5053742;28;45514;-58
2021/11/04 06:25:57;;;;;;;;;31.75;26.25;;;;;8.26;97.30;100430.56;5054344;28;45289;-61
2021/11/04 06:28:23;;;;;;;;;32.25;28.75;;;;;8.25;97.11;100431.44;5050612;28;45434;-59
2021/11/04 06:30:48;;;;;;;;;34.25;31.50;;;;;8.23;97.30;100438.41;5058766;28;45354;-59
2021/11/04 06:33:14;;;;;;;;;33.25;30.25;;;;;8.22;97.92;100432.38;5060101;28;45339;-59
2021/11/04 06:35:39;;;;;;;;;33.50;30.50;;;;;8.24;98.04;100440.09;5066862;28;46263;-58
2021/11/04 06:38:04;;;;;;;;;31.25;29.00;;;;;8.31;97.47;100445.97;5059247;28;45423;-59
2021/11/04 06:40:30;;;;;;;;;36.50;31.25;;;;;8.38;97.42;100444.97;5058978;28;45377;-58
2021/11/04 06:42:55;;;;;;;;;40.25;30.00;;;;;8.43;97.10;100453.50;5060512;28;45471;-60
2021/11/04 06:45:21;;;;;;;;;33.00;29.75;;;;;8.49;97.16;100454.22;5054893;28;46094;-58
2021/11/04 06:47:50;;;;;;;;;29.50;27.50;;;;;8.54;96.95;100460.13;5055494;28;45341;-60
2021/11/04 06:50:17;;;;;;;;;27.75;23.50;;;;;8.57;97.01;100459.19;5060276;28;45262;-59
2021/11/04 06:52:56;;;;;;;;;24.25;21.75;;;;;8.57;96.74;100456.59;5061079;28;45554;-58
2021/11/04 06:55:26;;;;;;;;;32.50;27.75;;;;;8.60;97.19;100458.28;5060986;28;46602;-58
2021/11/04 06:57:59;;;;;;;;;33.75;23.00;;;;;8.62;97.31;100459.97;5061380;28;45331;-58
2021/11/04 07:00:28;;;;;;;;;33.50;24.75;;;;;8.61;97.40;100460.84;5061268;28;45467;-59
2021/11/04 07:03:07;;;;;;;;;29.75;19.75;;;;;8.61;97.14;100466.03;5061457;28;45487;-59
2021/11/04 07:05:33;;;;;;;;;34.75;26.25;;;;;8.62;97.16;100470.31;5059839;28;45394;-59
2021/11/04 07:08:02;;;;;;;;;32.50;23.25;;;;;8.59;96.95;100456.56;5061229;28;45812;-60
2021/11/04 07:10:29;;;;;;;;;22.25;21.00;;;;;8.64;96.90;100467.69;5060205;28;45354;-59
2021/11/04 07:12:55;;;;;;;;;27.00;19.25;;;;;8.66;96.73;100473.69;5060916;28;45542;-60
2021/11/04 07:15:22;;;;;;;;;25.00;22.75;;;;;8.67;97.02;100478.84;5060313;28;46530;-59
2021/11/04 07:17:47;;;;;;;;;26.75;23.25;;;;;8.69;96.93;100487.41;5060952;28;45423;-59
2021/11/04 07:20:16;;;;;;;;;23.25;21.00;;;;;8.72;96.73;100489.06;5048409;28;45280;-59
2021/11/04 07:22:44;;;;;;;;;25.75;22.00;;;;;8.79;97.46;100498.38;5060837;28;45435;-58
2021/11/04 07:25:15;;;;;;;;;25.00;21.25;;;;;8.80;97.15;100497.50;5047234;28;46279;-59
2021/11/04 07:28:07;;;;;;;;;28.25;24.00;;;;;8.82;97.22;100501.78;5048739;28;46006;-59
2021/11/04 07:30:32;;;;;;;;;22.25;22.00;;;;;8.80;97.37;100503.53;5047108;28;45971;-59
2021/11/04 07:33:03;;;;;;;;;27.00;23.75;;;;;8.84;97.55;100496.56;5047987;28;45723;-59
2021/11/04 07:35:32;;;;;;;;;24.25;22.00;;;;;8.87;97.23;100506.00;5052153;28;46143;-59
2021/11/04 07:37:57;;;;;;;;;26.00;22.25;;;;;8.87;97.65;100509.44;5049149;28;45537;-59
2021/11/04 07:40:26;;;;;;;;;25.75;22.50;;;;;8.86;97.70;100512.94;5050301;28;45433;-59
2021/11/04 07:42:52;;;;;;;;;29.25;23.25;;;;;8.89;97.24;100527.53;5048167;28;45426;-59
2021/11/04 07:45:19;;;;;;;;;23.75;21.25;;;;;8.89;97.95;100524.94;5052374;28;45496;-59
2021/11/04 07:47:46;;;;;;;;;27.75;26.50;;;;;8.92;97.56;100532.66;5050273;28;45303;-59
2021/11/04 07:50:15;;;;;;;;;26.50;23.75;;;;;8.95;97.18;100533.41;5048131;28;45672;-60
2021/11/04 07:52:42;;;;;;;;;22.00;20.50;;;;;9.03;96.96;100538.44;5048756;28;45299;-59
2021/11/04 07:55:08;;;;;;;;;21.25;17.00;;;;;9.09;96.81;100549.50;5059141;28;45330;-59
2021/11/04 07:57:36;;;;;;;;;25.00;24.50;;;;;9.19;97.25;100550.09;5050057;28;45335;-59
2021/11/04 08:00:07;;;;;;;;;25.75;22.25;;;;;9.22;96.57;100555.25;5047874;28;45541;-59
2021/11/04 08:02:32;;;;;;;;;24.00;19.25;;;;;9.25;96.71;100547.38;5049475;28;46228;-59
2021/11/04 08:04:58;;;;;;;;;18.75;15.50;;;;;9.30;96.84;100555.91;5049879;28;45659;-59
2021/11/04 08:07:23;;;;;;;;;18.50;17.75;;;;;9.39;96.33;100554.78;5046502;28;45394;-58
2021/11/04 08:09:48;;;;;;;;;24.25;19.75;;;;;9.44;95.96;100559.00;5053919;28;45273;-59
2021/11/04 08:12:14;;;;;;;;;23.25;19.25;;;;;9.52;95.58;100557.94;5059921;28;45521;-58
2021/11/04 08:14:41;;;;;;;;;21.25;19.75;;;;;9.58;95.95;100561.22;5059344;28;45283;-60
2021/11/04 08:17:06;;;;;;;;;21.25;17.75;;;;;9.62;95.61;100565.47;5059288;28;45864;-59
2021/11/04 08:19:34;;;;;;;;;19.75;17.75;;;;;9.67;95.64;100567.91;5057956;28;45564;-58
2021/11/04 08:21:59;;;;;;;;;13.75;13.75;;;;;9.70;95.18;100570.44;5059823;28;45164;-58
2021/11/04 08:24:24;;;;;;;;;18.75;17.75;;;;;9.73;95.08;100571.19;5046725;28;45940;-59
2021/11/04 08:26:50;;;;;;;;;19.00;15.25;;;;;9.80;94.37;100578.81;5059331;28;45272;-58
2021/11/04 08:29:15;;;;;;;;;16.75;16.75;;;;;9.85;94.60;100580.41;5059529;28;45354;-59
2021/11/04 08:31:40;;;;;;;;;15.50;14.50;;;;;9.91;94.58;100584.56;5053429;28;45302;-60
2021/11/04 08:34:06;;;;;;;;;21.75;18.25;;;;;9.95;94.33;100581.84;5058056;28;45399;-59
2021/11/04 08:36:31;;;;;;;;;16.50;14.00;;;;;9.92;94.19;100578.47;5061807;28;45251;-59
2021/11/04 08:38:57;;;;;;;;;17.00;15.25;;;;;9.98;93.91;100586.94;5055706;28;45427;-59
2021/11/04 08:41:22;;;;;;;;;22.00;16.00;;;;;10.01;93.93;100599.00;5059933;28;45425;-59
2021/11/04 08:43:48;;;;;;;;;18.75;14.75;;;;;10.06;93.57;100600.59;5058636;28;46256;-58
2021/11/04 08:46:14;;;;;;;;;19.75;16.25;;;;;10.09;93.47;100610.03;5058177;28;45465;-60
2021/11/04 08:48:39;;;;;;;;;14.00;14.00;;;;;10.06;92.96;100610.13;5059346;28;45303;-59
2021/11/04 08:51:05;;;;;;;;;15.50;11.00;;;;;10.09;93.00;100607.44;5059160;28;45306;-58
2021/11/04 08:53:31;;;;;;;;;15.75;14.00;;;;;10.06;92.53;100608.38;5058267;28;46154;-58
2021/11/04 08:55:56;;;;;;;;;17.00;14.25;;;;;10.11;93.07;100607.38;5054307;28;45378;-58
2021/11/04 08:58:22;;;;;;;;;15.00;12.25;;;;;10.15;92.70;100622.00;5053006;28;45323;-58
2021/11/04 09:00:49;;;;;;;;;13.50;10.25;;;;;10.20;92.19;100610.56;5058858;28;45645;-58
2021/11/04 09:03:16;;;;;;;;;15.00;12.25;;;;;10.26;91.50;100620.84;5058836;28;45444;-59
2021/11/04 09:05:44;;;;;;;;;14.25;10.25;;;;;10.48;92.24;100612.44;5059086;28;45223;-57
2021/11/04 09:08:09;;;;;;;;;14.00;10.50;;;;;10.69;89.69;100613.53;5058832;28;45357;-58
2021/11/04 09:10:35;;;;;;;;;9.25;7.75;;;;;10.82;88.76;100620.09;5059241;28;45302;-58
2021/11/04 09:13:00;;;;;;;;;18.25;8.25;;;;;10.81;88.43;100627.03;5058914;28;46285;-58
2021/11/04 09:15:25;;;;;;;;;12.50;10.50;;;;;10.79;88.16;100633.16;5059095;28;45318;-59
2021/11/04 09:17:51;;;;;;;;;10.25;8.00;;;;;10.74;88.45;100630.69;5058420;28;45326;-58
2021/11/04 09:20:17;;;;;;;;;11.00;8.50;;;;;10.77;88.11;100642.75;5057699;28;45538;-58
2021/11/04 09:22:46;;;;;;;;;11.00;9.75;;;;;10.83;88.46;100638.25;5058862;28;46235;-57
2021/11/04 09:25:13;;;;;;;;;10.25;9.00;;;;;10.83;87.80;100643.44;5047100;28;45805;-60
2021/11/04 09:27:39;;;;;;;;;10.00;8.00;;;;;10.86;87.34;100645.09;5057497;28;45341;-57
2021/11/04 09:30:05;;;;;;;;;12.00;9.00;;;;;10.89;87.74;100652.78;5058279;28;45540;-57
2021/11/04 09:32:30;;;;;;;;;13.50;8.00;;;;;10.89;87.92;100647.59;5058176;28;46257;-56
2021/11/04 09:34:59;;;;;;;;;9.25;9.00;;;;;10.96;87.75;100649.09;5057408;28;45310;-67
2021/11/04 09:37:25;;;;;;;;;9.75;7.50;;;;;10.98;87.73;100650.75;5060720;28;45446;-58
2021/11/04 09:39:51;;;;;;;;;7.50;6.00;;;;;11.02;87.47;100655.88;5062654;28;45263;-59
2021/11/04 09:42:21;;;;;;;;;7.75;7.00;;;;;11.02;86.63;100645.47;5062024;28;46115;-58
2021/11/04 09:44:48;;;;;;;;;5.75;5.25;;;;;11.14;85.01;100653.75;5061813;28;45796;-58
2021/11/04 09:47:16;;;;;;;;;7.50;5.75;;;;;11.44;86.82;100648.47;5060695;28;45525;-71
2021/11/04 09:49:42;;;;;;;;;7.25;7.25;;;;;11.57;85.24;100654.97;5057635;28;45375;-62
2021/11/04 09:52:07;;;;;;;;;6.50;4.00;;;;;11.61;82.83;100660.91;5057079;28;46493;-62
2021/11/04 09:54:33;;;;;;;;;6.50;4.75;;;;;11.55;80.77;100657.63;5062266;28;45497;-62
2021/11/04 09:56:58;;;;;;;;;6.00;5.00;;;;;11.52;83.01;100665.53;5062167;28;45386;-60
2021/11/04 09:59:23;;;;;;;;;8.00;7.75;;;;;11.55;83.09;100672.38;5060605;28;45707;-61
2021/11/04 10:01:50;;;;;;;;;9.50;4.75;;;;;11.55;82.16;100662.81;5058846;28;46090;-61
2021/11/04 10:04:33;;;;;;;;;9.75;4.50;;;;;11.66;80.65;100675.50;5061882;28;45398;-60
2021/11/04 10:06:58;;;;;;;;;5.75;4.75;;;;;11.81;80.30;100667.22;5062055;28;45369;-61
2021/11/04 10:09:28;;;;;;;;;7.75;6.00;;;;;11.99;79.58;100670.06;5062142;28;45241;-60
2021/11/04 10:11:54;;;;;;;;;8.50;5.50;;;;;12.02;79.81;100675.22;5061573;28;45416;-60
2021/11/04 10:14:20;;;;;;;;;9.25;7.75;;;;;12.07;80.96;100686.31;5061792;28;45707;-60
2021/11/04 10:16:46;;;;;;;;;3.50;3.50;;;;;11.97;79.64;100693.56;5061491;28;45248;-62
2021/11/04 10:19:16;;;;;;;;;3.00;2.75;;;;;11.74;78.73;100680.44;5052962;28;45563;-62
2021/11/04 10:21:45;;;;;;;;;4.25;2.75;;;;;12.37;83.11;100685.22;5048565;28;45429;-66
2021/11/04 10:24:17;;;;;;;;;8.00;2.75;;;;;13.81;75.64;100684.91;5048496;28;45612;-61
2021/11/04 10:26:43;;;;;;;;;6.75;5.00;;;;;14.38;71.54;100691.16;5048641;28;45320;-61
2021/11/04 10:29:11;;;;;;;;;4.00;3.50;;;;;15.46;71.56;100689.66;5061406;28;45326;-61
2021/11/04 10:31:43;;;;;;;;;4.25;3.00;;;;;15.93;68.63;100688.25;5059889;28;46258;-61
2021/11/04 10:34:23;;;;;;;;;4.50;4.50;;;;;15.43;61.71;100684.56;5061399;28;45770;-62
2021/11/04 10:36:49;;;;;;;;;4.00;3.00;;;;;14.97;65.33;100696.34;5062196;28;45420;-62
2021/11/04 10:39:14;;;;;;;;;3.00;3.00;;;;;14.79;67.94;100694.56;5058556;28;45529;-62
2021/11/04 10:41:43;;;;;;;;;4.00;4.00;;;;;14.70;68.32;100690.63;5061400;28;46155;-62
2021/11/04 10:44:12;;;;;;;;;9.00;4.00;;;;;14.64;67.19;100692.69;5060710;28;45659;-62
2021/11/04 10:46:47;;;;;;;;;2.00;2.00;;;;;14.52;66.98;100694.06;5060074;28;45629;-62
2021/11/04 10:49:13;;;;;;;;;4.75;4.50;;;;;14.38;66.97;100688.56;5059418;28;45443;-62
2021/11/04 10:51:39;;;;;;;;;1.00;1.00;;;;;14.25;65.67;100696.94;5061170;28;46425;-62
2021/11/04 10:54:23;;;;;;;;;5.00;3.00;;;;;14.21;66.86;100692.75;5051323;28;45280;-62
2021/11/04 10:56:51;;;;;;;;;3.75;2.75;;;;;14.11;67.10;100694.06;5052987;28;45429;-62
2021/11/04 10:59:18;;;;;;;;;2.75;2.00;;;;;13.95;67.66;100693.00;5048328;28;45240;-62
2021/11/04 11:01:46;;;;;;;;;2.00;2.00;;;;;13.78;64.72;100701.56;5048863;28;46088;-62
2021/11/04 11:04:15;;;;;;;;;3.00;3.00;;;;;13.46;65.80;100704.63;5049898;28;45193;-62
2021/11/04 11:06:46;;;;;;;;;3.00;2.00;;;;;13.23;68.15;100701.19;5051118;28;45312;-62
2021/11/04 11:09:33;;;;;;;;;3.50;2.50;;;;;13.06;68.32;100709.63;5050963;28;45534;-62
2021/11/04 11:12:05;;;;;;;;;2.25;2.25;;;;;12.83;68.90;100719.22;5049065;28;47513;-62
2021/11/04 11:14:36;;;;;;;;;2.75;2.25;;;;;12.59;69.84;100719.19;5049377;28;45367;-62
2021/11/04 11:17:03;;;;;;;;;4.75;4.00;;;;;12.53;70.76;100721.16;5050079;28;45371;-62
2021/11/04 11:19:30;;;;;;;;;5.75;5.75;;;;;12.60;70.78;100720.03;5049261;28;45470;-62